sensor_id;sensor_type;location;lat;lon;timestamp;pressure;altitude;pressure_sealevel;temperature;humidity
82668;BME280;72691;51.374;-0.176;2023-12-22T00:00:47;100860.79;;;8.14;50.07
82668;BME280;72691;51.374;-0.176;2023-12-22T00:03:13;100857.11;;;8.03;51.18
82668;BME280;72691;51.374;-0.176;2023-12-22T00:05:43;100867.53;;;8.44;50.77
82668;BME280;72691;51.374;-0.176;2023-12-22T00:08:04;100859.67;;;8.19;50.49
82668;BME280;72691;51.374;-0.176;2023-12-22T00:10:28;100866.39;;;8.18;51.38
82668;BME280;72691;51.374;-0.176;2023-12-22T00:12:54;100864.51;;;8.58;49.83
82668;BME280;72691;51.374;-0.176;2023-12-22T00:15:19;100863.83;;;8.26;50.82
82668;BME280;72691;51.374;-0.176;2023-12-22T00:17:44;100865.10;;;8.69;49.43
82668;BME280;72691;51.374;-0.176;2023-12-22T00:20:10;100858.96;;;8.10;51.33
82668;BME280;72691;51.374;-0.176;2023-12-22T00:22:35;100863.87;;;8.51;51.24
82668;BME280;72691;51.374;-0.176;2023-12-22T00:25:00;100875.24;;;8.47;50.97
82668;BME280;72691;51.374;-0.176;2023-12-22T00:27:25;100873.59;;;8.60;50.71
82668;BME280;72691;51.374;-0.176;2023-12-22T00:29:56;100877.69;;;8.44;51.10
82668;BME280;72691;51.374;-0.176;2023-12-22T00:32:16;100884.40;;;8.43;50.50
82668;BME280;72691;51.374;-0.176;2023-12-22T00:34:41;100874.82;;;8.65;51.00
82668;BME280;72691;51.374;-0.176;2023-12-22T00:37:07;100875.11;;;8.72;50.65
82668;BME280;72691;51.374;-0.176;2023-12-22T00:39:32;100874.23;;;8.73;50.29
82668;BME280;72691;51.374;-0.176;2023-12-22T00:41:57;100872.68;;;9.05;49.61
82668;BME280;72691;51.374;-0.176;2023-12-22T00:44:23;100873.27;;;9.16;49.35
82668;BME280;72691;51.374;-0.176;2023-12-22T00:46:48;100878.16;;;9.13;49.17
82668;BME280;72691;51.374;-0.176;2023-12-22T00:49:14;100881.39;;;9.39;48.47
82668;BME280;72691;51.374;-0.176;2023-12-22T00:51:39;100884.55;;;9.81;48.60
82668;BME280;72691;51.374;-0.176;2023-12-22T00:54:10;100889.90;;;9.42;48.64
82668;BME280;72691;51.374;-0.176;2023-12-22T00:56:30;100878.67;;;9.68;48.22
82668;BME280;72691;51.374;-0.176;2023-12-22T00:58:54;100890.24;;;9.41;49.11
82668;BME280;72691;51.374;-0.176;2023-12-22T01:01:20;100888.16;;;9.09;50.60
82668;BME280;72691;51.374;-0.176;2023-12-22T01:03:45;100887.92;;;9.08;50.73
82668;BME280;72691;51.374;-0.176;2023-12-22T01:06:11;100889.15;;;9.39;50.61
82668;BME280;72691;51.374;-0.176;2023-12-22T01:08:37;100882.83;;;8.96;51.63
82668;BME280;72691;51.374;-0.176;2023-12-22T01:11:01;100887.53;;;9.14;50.25
82668;BME280;72691;51.374;-0.176;2023-12-22T01:13:26;100888.65;;;9.93;49.71
82668;BME280;72691;51.374;-0.176;2023-12-22T01:15:57;100891.27;;;9.32;51.04
82668;BME280;72691;51.374;-0.176;2023-12-22T01:18:17;100886.96;;;9.43;51.38
82668;BME280;72691;51.374;-0.176;2023-12-22T01:20:42;100888.95;;;9.45;51.36
82668;BME280;72691;51.374;-0.176;2023-12-22T01:23:08;100886.51;;;9.33;51.31
82668;BME280;72691;51.374;-0.176;2023-12-22T01:25:33;100890.56;;;9.12;53.19
82668;BME280;72691;51.374;-0.176;2023-12-22T01:27:58;100885.16;;;8.46;55.24
82668;BME280;72691;51.374;-0.176;2023-12-22T01:30:24;100887.22;;;9.20;55.40
82668;BME280;72691;51.374;-0.176;2023-12-22T01:32:50;100890.86;;;8.89;55.47
82668;BME280;72691;51.374;-0.176;2023-12-22T01:35:15;100889.46;;;9.19;55.21
82668;BME280;72691;51.374;-0.176;2023-12-22T01:37:40;100905.32;;;8.76;56.57
82668;BME280;72691;51.374;-0.176;2023-12-22T01:40:08;100906.27;;;8.91;56.29
82668;BME280;72691;51.374;-0.176;2023-12-22T01:42:31;100904.59;;;8.84;56.09
82668;BME280;72691;51.374;-0.176;2023-12-22T01:44:57;100909.33;;;8.58;56.51
82668;BME280;72691;51.374;-0.176;2023-12-22T01:47:22;100903.94;;;8.89;56.67
82668;BME280;72691;51.374;-0.176;2023-12-22T01:49:47;100904.12;;;8.99;55.71
82668;BME280;72691;51.374;-0.176;2023-12-22T01:52:12;100903.23;;;9.23;55.65
82668;BME280;72691;51.374;-0.176;2023-12-22T01:54:38;100897.23;;;8.62;56.83
82668;BME280;72691;51.374;-0.176;2023-12-22T01:57:04;100896.40;;;8.47;57.07
82668;BME280;72691;51.374;-0.176;2023-12-22T01:59:29;100890.67;;;8.71;57.00
82668;BME280;72691;51.374;-0.176;2023-12-22T02:01:55;100901.38;;;9.37;55.96
82668;BME280;72691;51.374;-0.176;2023-12-22T02:04:20;100913.72;;;8.44;58.87
82668;BME280;72691;51.374;-0.176;2023-12-22T02:06:45;100913.66;;;8.81;58.31
82668;BME280;72691;51.374;-0.176;2023-12-22T02:09:10;100916.69;;;8.76;59.71
82668;BME280;72691;51.374;-0.176;2023-12-22T02:11:37;100923.66;;;8.67;62.33
82668;BME280;72691;51.374;-0.176;2023-12-22T02:14:02;100925.45;;;8.34;63.84
82668;BME280;72691;51.374;-0.176;2023-12-22T02:16:39;100917.14;;;9.19;61.95
82668;BME280;72691;51.374;-0.176;2023-12-22T02:18:55;100912.30;;;8.77;62.38
82668;BME280;72691;51.374;-0.176;2023-12-22T02:21:17;100908.57;;;9.28;60.82
82668;BME280;72691;51.374;-0.176;2023-12-22T02:23:43;100904.90;;;9.44;60.39
82668;BME280;72691;51.374;-0.176;2023-12-22T02:26:15;100904.44;;;9.13;60.91
82668;BME280;72691;51.374;-0.176;2023-12-22T02:28:34;100900.05;;;9.85;60.01
82668;BME280;72691;51.374;-0.176;2023-12-22T02:31:04;100893.46;;;9.87;59.09
82668;BME280;72691;51.374;-0.176;2023-12-22T02:33:28;100886.48;;;9.56;60.85
82668;BME280;72691;51.374;-0.176;2023-12-22T02:35:55;100884.72;;;10.09;59.55
82668;BME280;72691;51.374;-0.176;2023-12-22T02:38:16;100878.06;;;9.90;59.49
82668;BME280;72691;51.374;-0.176;2023-12-22T02:40:41;100872.21;;;10.68;57.17
82668;BME280;72691;51.374;-0.176;2023-12-22T02:43:07;100861.36;;;10.13;58.22
82668;BME280;72691;51.374;-0.176;2023-12-22T02:45:31;100862.37;;;9.37;59.97
82668;BME280;72691;51.374;-0.176;2023-12-22T02:48:02;100857.61;;;9.22;60.93
82668;BME280;72691;51.374;-0.176;2023-12-22T02:50:22;100851.26;;;9.64;59.60
82668;BME280;72691;51.374;-0.176;2023-12-22T02:52:48;100859.22;;;9.43;59.69
82668;BME280;72691;51.374;-0.176;2023-12-22T02:55:13;100856.85;;;9.80;58.99
82668;BME280;72691;51.374;-0.176;2023-12-22T02:57:39;100851.89;;;9.59;59.73
82668;BME280;72691;51.374;-0.176;2023-12-22T03:00:05;100848.33;;;9.59;59.58
82668;BME280;72691;51.374;-0.176;2023-12-22T03:02:34;100836.83;;;9.92;58.93
82668;BME280;72691;51.374;-0.176;2023-12-22T03:04:54;100822.15;;;9.72;59.45
82668;BME280;72691;51.374;-0.176;2023-12-22T03:07:20;100814.69;;;9.83;59.11
82668;BME280;72691;51.374;-0.176;2023-12-22T03:09:45;100817.73;;;9.32;60.54
82668;BME280;72691;51.374;-0.176;2023-12-22T03:12:11;100809.63;;;8.94;60.65
82668;BME280;72691;51.374;-0.176;2023-12-22T03:14:37;100814.31;;;9.37;61.33
82668;BME280;72691;51.374;-0.176;2023-12-22T03:17:03;100803.61;;;9.30;61.54
82668;BME280;72691;51.374;-0.176;2023-12-22T03:19:27;100809.93;;;8.64;62.38
82668;BME280;72691;51.374;-0.176;2023-12-22T03:21:53;100805.33;;;8.84;62.24
82668;BME280;72691;51.374;-0.176;2023-12-22T03:24:23;100805.90;;;9.34;61.50
82668;BME280;72691;51.374;-0.176;2023-12-22T03:26:44;100798.06;;;8.61;62.16
82668;BME280;72691;51.374;-0.176;2023-12-22T03:29:09;100793.91;;;9.07;61.51
82668;BME280;72691;51.374;-0.176;2023-12-22T03:31:35;100786.06;;;9.32;61.17
82668;BME280;72691;51.374;-0.176;2023-12-22T03:34:01;100777.30;;;8.80;61.76
82668;BME280;72691;51.374;-0.176;2023-12-22T03:36:25;100777.78;;;9.34;60.43
82668;BME280;72691;51.374;-0.176;2023-12-22T03:38:51;100787.71;;;9.11;62.05
82668;BME280;72691;51.374;-0.176;2023-12-22T03:41:16;100774.84;;;8.79;61.08
82668;BME280;72691;51.374;-0.176;2023-12-22T03:43:42;100777.31;;;9.34;60.57
82668;BME280;72691;51.374;-0.176;2023-12-22T03:46:08;100783.62;;;8.57;62.34
82668;BME280;72691;51.374;-0.176;2023-12-22T03:48:33;100783.85;;;8.40;63.22
82668;BME280;72691;51.374;-0.176;2023-12-22T03:50:58;100766.82;;;8.20;63.55
82668;BME280;72691;51.374;-0.176;2023-12-22T03:53:24;100770.71;;;8.37;63.31
82668;BME280;72691;51.374;-0.176;2023-12-22T03:55:49;100767.45;;;8.86;62.09
82668;BME280;72691;51.374;-0.176;2023-12-22T03:58:14;100761.36;;;8.04;64.58
82668;BME280;72691;51.374;-0.176;2023-12-22T04:00:40;100765.38;;;8.27;64.76
82668;BME280;72691;51.374;-0.176;2023-12-22T04:03:06;100763.45;;;8.55;64.13
82668;BME280;72691;51.374;-0.176;2023-12-22T04:05:31;100760.87;;;7.69;65.27
82668;BME280;72691;51.374;-0.176;2023-12-22T04:07:56;100764.99;;;8.38;64.80
82668;BME280;72691;51.374;-0.176;2023-12-22T04:10:22;100763.87;;;7.99;65.23
82668;BME280;72691;51.374;-0.176;2023-12-22T04:12:47;100752.47;;;7.94;65.42
82668;BME280;72691;51.374;-0.176;2023-12-22T04:15:13;100759.52;;;7.92;65.79
82668;BME280;72691;51.374;-0.176;2023-12-22T04:17:38;100754.07;;;7.96;66.70
82668;BME280;72691;51.374;-0.176;2023-12-22T04:20:05;100752.92;;;8.17;67.02
82668;BME280;72691;51.374;-0.176;2023-12-22T04:22:30;100761.98;;;8.17;67.27
82668;BME280;72691;51.374;-0.176;2023-12-22T04:24:54;100761.72;;;8.12;67.45
82668;BME280;72691;51.374;-0.176;2023-12-22T04:27:20;100759.01;;;7.98;66.90
82668;BME280;72691;51.374;-0.176;2023-12-22T04:29:45;100770.11;;;7.96;66.99
82668;BME280;72691;51.374;-0.176;2023-12-22T04:32:10;100756.66;;;8.18;66.49
82668;BME280;72691;51.374;-0.176;2023-12-22T04:34:36;100763.43;;;8.38;67.12
82668;BME280;72691;51.374;-0.176;2023-12-22T04:37:01;100752.64;;;8.28;66.34
82668;BME280;72691;51.374;-0.176;2023-12-22T04:39:27;100753.67;;;8.22;66.28
82668;BME280;72691;51.374;-0.176;2023-12-22T04:41:52;100752.09;;;8.58;64.90
82668;BME280;72691;51.374;-0.176;2023-12-22T04:44:17;100759.62;;;9.03;63.49
82668;BME280;72691;51.374;-0.176;2023-12-22T04:46:43;100762.79;;;8.85;64.96
82668;BME280;72691;51.374;-0.176;2023-12-22T04:49:09;100781.57;;;8.36;65.09
82668;BME280;72691;51.374;-0.176;2023-12-22T04:51:34;100761.34;;;8.54;65.73
82668;BME280;72691;51.374;-0.176;2023-12-22T04:54:00;100751.33;;;8.38;66.20
82668;BME280;72691;51.374;-0.176;2023-12-22T04:56:25;100753.96;;;8.60;64.73
82668;BME280;72691;51.374;-0.176;2023-12-22T04:58:50;100753.34;;;8.56;65.21
82668;BME280;72691;51.374;-0.176;2023-12-22T05:01:16;100746.12;;;8.35;65.28
82668;BME280;72691;51.374;-0.176;2023-12-22T05:03:41;100760.20;;;8.50;66.78
82668;BME280;72691;51.374;-0.176;2023-12-22T05:06:07;100754.28;;;8.53;65.88
82668;BME280;72691;51.374;-0.176;2023-12-22T05:08:32;100756.52;;;8.50;65.61
82668;BME280;72691;51.374;-0.176;2023-12-22T05:10:57;100752.40;;;8.39;65.99
82668;BME280;72691;51.374;-0.176;2023-12-22T05:13:23;100744.65;;;8.67;65.52
82668;BME280;72691;51.374;-0.176;2023-12-22T05:15:48;100739.77;;;8.50;64.74
82668;BME280;72691;51.374;-0.176;2023-12-22T05:18:14;100735.51;;;8.70;65.11
82668;BME280;72691;51.374;-0.176;2023-12-22T05:20:39;100742.74;;;9.12;64.01
82668;BME280;72691;51.374;-0.176;2023-12-22T05:23:05;100737.68;;;8.84;63.59
82668;BME280;72691;51.374;-0.176;2023-12-22T05:25:30;100744.43;;;8.89;63.77
82668;BME280;72691;51.374;-0.176;2023-12-22T05:27:57;100750.42;;;9.26;62.80
82668;BME280;72691;51.374;-0.176;2023-12-22T05:30:21;100762.92;;;9.18;64.11
82668;BME280;72691;51.374;-0.176;2023-12-22T05:32:46;100758.49;;;8.64;64.21
82668;BME280;72691;51.374;-0.176;2023-12-22T05:35:12;100757.35;;;9.00;64.54
82668;BME280;72691;51.374;-0.176;2023-12-22T05:37:37;100753.31;;;8.49;67.10
82668;BME280;72691;51.374;-0.176;2023-12-22T05:40:03;100755.66;;;8.31;68.17
82668;BME280;72691;51.374;-0.176;2023-12-22T05:42:28;100766.79;;;8.19;70.00
82668;BME280;72691;51.374;-0.176;2023-12-22T05:44:53;100762.14;;;8.41;69.75
82668;BME280;72691;51.374;-0.176;2023-12-22T05:47:19;100771.79;;;8.29;69.35
82668;BME280;72691;51.374;-0.176;2023-12-22T05:49:44;100773.27;;;8.42;70.23
82668;BME280;72691;51.374;-0.176;2023-12-22T05:52:09;100774.16;;;8.30;69.57
82668;BME280;72691;51.374;-0.176;2023-12-22T05:54:35;100773.64;;;8.95;68.04
82668;BME280;72691;51.374;-0.176;2023-12-22T05:57:00;100780.10;;;8.65;69.29
82668;BME280;72691;51.374;-0.176;2023-12-22T05:59:26;100778.26;;;8.72;69.77
82668;BME280;72691;51.374;-0.176;2023-12-22T06:01:53;100775.48;;;8.46;70.06
82668;BME280;72691;51.374;-0.176;2023-12-22T06:04:17;100776.90;;;8.11;69.87
82668;BME280;72691;51.374;-0.176;2023-12-22T06:06:42;100775.15;;;8.59;68.77
82668;BME280;72691;51.374;-0.176;2023-12-22T06:09:08;100778.49;;;8.11;69.80
82668;BME280;72691;51.374;-0.176;2023-12-22T06:11:33;100770.35;;;7.98;70.15
82668;BME280;72691;51.374;-0.176;2023-12-22T06:13:59;100768.50;;;8.47;69.39
82668;BME280;72691;51.374;-0.176;2023-12-22T06:16:24;100764.65;;;8.41;68.57
82668;BME280;72691;51.374;-0.176;2023-12-22T06:18:50;100764.33;;;8.48;68.56
82668;BME280;72691;51.374;-0.176;2023-12-22T06:21:19;100766.82;;;8.81;67.95
82668;BME280;72691;51.374;-0.176;2023-12-22T06:23:40;100757.52;;;8.63;68.69
82668;BME280;72691;51.374;-0.176;2023-12-22T06:26:08;100757.90;;;8.66;67.37
82668;BME280;72691;51.374;-0.176;2023-12-22T06:28:31;100765.30;;;8.97;67.66
82668;BME280;72691;51.374;-0.176;2023-12-22T06:30:56;100756.95;;;8.47;67.69
82668;BME280;72691;51.374;-0.176;2023-12-22T06:33:22;100749.77;;;9.18;66.59
82668;BME280;72691;51.374;-0.176;2023-12-22T06:35:48;100747.34;;;8.77;66.40
82668;BME280;72691;51.374;-0.176;2023-12-22T06:38:13;100747.37;;;9.15;65.86
82668;BME280;72691;51.374;-0.176;2023-12-22T06:40:38;100745.46;;;9.69;64.13
82668;BME280;72691;51.374;-0.176;2023-12-22T06:43:03;100753.26;;;8.90;65.19
82668;BME280;72691;51.374;-0.176;2023-12-22T06:45:29;100759.66;;;9.31;64.56
82668;BME280;72691;51.374;-0.176;2023-12-22T06:47:55;100757.89;;;9.04;64.91
82668;BME280;72691;51.374;-0.176;2023-12-22T06:50:25;100758.28;;;8.46;66.36
82668;BME280;72691;51.374;-0.176;2023-12-22T06:52:46;100761.08;;;8.66;66.17
82668;BME280;72691;51.374;-0.176;2023-12-22T06:55:10;100763.01;;;8.55;65.41
82668;BME280;72691;51.374;-0.176;2023-12-22T06:57:36;100758.51;;;9.41;63.51
82668;BME280;72691;51.374;-0.176;2023-12-22T07:00:01;100755.56;;;9.24;64.06
82668;BME280;72691;51.374;-0.176;2023-12-22T07:02:27;100761.53;;;8.54;65.84
82668;BME280;72691;51.374;-0.176;2023-12-22T07:05:01;100758.98;;;9.31;64.55
82668;BME280;72691;51.374;-0.176;2023-12-22T07:07:18;100776.07;;;8.74;64.13
82668;BME280;72691;51.374;-0.176;2023-12-22T07:09:43;100788.10;;;9.09;63.27
82668;BME280;72691;51.374;-0.176;2023-12-22T07:12:09;100778.23;;;9.17;62.83
82668;BME280;72691;51.374;-0.176;2023-12-22T07:14:34;100785.97;;;8.67;64.61
82668;BME280;72691;51.374;-0.176;2023-12-22T07:16:59;100781.64;;;9.14;63.55
82668;BME280;72691;51.374;-0.176;2023-12-22T07:19:25;100787.14;;;9.23;63.17
82668;BME280;72691;51.374;-0.176;2023-12-22T07:21:50;100791.45;;;8.82;63.76
82668;BME280;72691;51.374;-0.176;2023-12-22T07:24:15;100807.93;;;8.44;64.86
82668;BME280;72691;51.374;-0.176;2023-12-22T07:26:41;100794.66;;;9.05;64.22
82668;BME280;72691;51.374;-0.176;2023-12-22T07:29:07;100797.80;;;9.02;63.23
82668;BME280;72691;51.374;-0.176;2023-12-22T07:31:33;100794.33;;;9.15;63.07
82668;BME280;72691;51.374;-0.176;2023-12-22T07:33:57;100801.31;;;8.57;63.60
82668;BME280;72691;51.374;-0.176;2023-12-22T07:36:23;100805.72;;;9.03;63.91
82668;BME280;72691;51.374;-0.176;2023-12-22T07:38:48;100807.58;;;8.93;64.11
82668;BME280;72691;51.374;-0.176;2023-12-22T07:41:13;100814.08;;;8.55;66.17
82668;BME280;72691;51.374;-0.176;2023-12-22T07:43:39;100809.14;;;8.72;65.65
82668;BME280;72691;51.374;-0.176;2023-12-22T07:46:04;100803.60;;;8.64;65.20
82668;BME280;72691;51.374;-0.176;2023-12-22T07:48:29;100806.42;;;9.02;64.79
82668;BME280;72691;51.374;-0.176;2023-12-22T07:50:55;100807.34;;;9.10;64.39
82668;BME280;72691;51.374;-0.176;2023-12-22T07:53:21;100804.81;;;8.94;64.95
82668;BME280;72691;51.374;-0.176;2023-12-22T07:55:51;100807.24;;;9.20;63.42
82668;BME280;72691;51.374;-0.176;2023-12-22T07:58:11;100810.76;;;8.84;63.60
82668;BME280;72691;51.374;-0.176;2023-12-22T08:00:42;100797.34;;;9.03;63.42
82668;BME280;72691;51.374;-0.176;2023-12-22T08:03:03;100818.21;;;8.97;63.38
82668;BME280;72691;51.374;-0.176;2023-12-22T08:05:27;100808.75;;;9.18;63.17
82668;BME280;72691;51.374;-0.176;2023-12-22T08:07:53;100815.12;;;9.03;62.79
82668;BME280;72691;51.374;-0.176;2023-12-22T08:10:19;100820.20;;;9.46;60.76
82668;BME280;72691;51.374;-0.176;2023-12-22T08:12:44;100828.58;;;9.65;60.35
82668;BME280;72691;51.374;-0.176;2023-12-22T08:15:10;100837.91;;;9.22;60.47
82668;BME280;72691;51.374;-0.176;2023-12-22T08:17:35;100832.62;;;8.81;61.67
82668;BME280;72691;51.374;-0.176;2023-12-22T08:20:00;100838.89;;;9.18;62.37
82668;BME280;72691;51.374;-0.176;2023-12-22T08:22:25;100842.40;;;9.40;61.28
82668;BME280;72691;51.374;-0.176;2023-12-22T08:24:51;100839.13;;;9.11;61.19
82668;BME280;72691;51.374;-0.176;2023-12-22T08:27:16;100840.38;;;9.51;59.51
82668;BME280;72691;51.374;-0.176;2023-12-22T08:29:42;100836.73;;;10.22;57.91
82668;BME280;72691;51.374;-0.176;2023-12-22T08:32:08;100842.70;;;9.01;60.92
82668;BME280;72691;51.374;-0.176;2023-12-22T08:34:32;100856.63;;;8.59;61.79
82668;BME280;72691;51.374;-0.176;2023-12-22T08:36:58;100852.46;;;8.67;62.18
82668;BME280;72691;51.374;-0.176;2023-12-22T08:39:23;100849.38;;;9.48;59.86
82668;BME280;72691;51.374;-0.176;2023-12-22T08:41:49;100846.98;;;9.12;59.39
82668;BME280;72691;51.374;-0.176;2023-12-22T08:44:14;100850.73;;;9.24;60.07
82668;BME280;72691;51.374;-0.176;2023-12-22T08:46:40;100858.24;;;9.45;60.56
82668;BME280;72691;51.374;-0.176;2023-12-22T08:49:05;100858.69;;;9.11;61.15
82668;BME280;72691;51.374;-0.176;2023-12-22T08:51:30;100857.35;;;9.63;59.24
82668;BME280;72691;51.374;-0.176;2023-12-22T08:53:56;100865.39;;;9.12;60.02
82668;BME280;72691;51.374;-0.176;2023-12-22T08:56:21;100856.88;;;8.82;60.99
82668;BME280;72691;51.374;-0.176;2023-12-22T08:58:47;100863.32;;;8.74;60.51
82668;BME280;72691;51.374;-0.176;2023-12-22T09:01:14;100865.19;;;9.24;59.89
82668;BME280;72691;51.374;-0.176;2023-12-22T09:03:38;100879.70;;;9.75;58.67
82668;BME280;72691;51.374;-0.176;2023-12-22T09:06:03;100879.61;;;8.96;60.59
82668;BME280;72691;51.374;-0.176;2023-12-22T09:08:28;100872.45;;;9.22;60.14
82668;BME280;72691;51.374;-0.176;2023-12-22T09:10:54;100873.80;;;9.37;59.93
82668;BME280;72691;51.374;-0.176;2023-12-22T09:13:19;100865.38;;;9.48;58.23
82668;BME280;72691;51.374;-0.176;2023-12-22T09:15:44;100872.47;;;10.16;58.00
82668;BME280;72691;51.374;-0.176;2023-12-22T09:18:10;100865.27;;;9.20;59.17
82668;BME280;72691;51.374;-0.176;2023-12-22T09:20:35;100867.28;;;9.47;59.56
82668;BME280;72691;51.374;-0.176;2023-12-22T09:23:01;100868.41;;;9.18;59.46
82668;BME280;72691;51.374;-0.176;2023-12-22T09:25:26;100875.65;;;9.64;59.31
82668;BME280;72691;51.374;-0.176;2023-12-22T09:27:52;100881.97;;;9.32;59.10
82668;BME280;72691;51.374;-0.176;2023-12-22T09:30:17;100886.03;;;9.63;58.28
82668;BME280;72691;51.374;-0.176;2023-12-22T09:32:42;100890.75;;;9.85;58.41
82668;BME280;72691;51.374;-0.176;2023-12-22T09:35:08;100902.48;;;9.87;58.62
82668;BME280;72691;51.374;-0.176;2023-12-22T09:37:33;100914.33;;;9.46;57.91
82668;BME280;72691;51.374;-0.176;2023-12-22T09:39:58;100914.66;;;9.99;57.68
82668;BME280;72691;51.374;-0.176;2023-12-22T09:42:25;100902.04;;;10.19;57.09
82668;BME280;72691;51.374;-0.176;2023-12-22T09:44:53;100901.26;;;9.68;57.99
82668;BME280;72691;51.374;-0.176;2023-12-22T09:47:16;100918.04;;;10.37;55.95
82668;BME280;72691;51.374;-0.176;2023-12-22T09:49:41;100919.66;;;9.95;57.61
82668;BME280;72691;51.374;-0.176;2023-12-22T09:52:06;100927.19;;;9.35;59.87
82668;BME280;72691;51.374;-0.176;2023-12-22T09:54:31;100914.15;;;8.67;60.78
82668;BME280;72691;51.374;-0.176;2023-12-22T09:56:57;100941.21;;;8.91;60.94
82668;BME280;72691;51.374;-0.176;2023-12-22T09:59:27;100932.50;;;9.70;59.36
82668;BME280;72691;51.374;-0.176;2023-12-22T10:01:48;100943.65;;;9.86;58.72
82668;BME280;72691;51.374;-0.176;2023-12-22T10:04:13;100945.68;;;9.24;61.26
82668;BME280;72691;51.374;-0.176;2023-12-22T10:06:38;100951.53;;;9.52;60.51
82668;BME280;72691;51.374;-0.176;2023-12-22T10:09:05;100943.96;;;9.02;60.66
82668;BME280;72691;51.374;-0.176;2023-12-22T10:11:30;100954.69;;;8.80;62.13
82668;BME280;72691;51.374;-0.176;2023-12-22T10:13:55;100961.57;;;9.06;61.07
82668;BME280;72691;51.374;-0.176;2023-12-22T10:16:20;100963.45;;;9.37;60.36
82668;BME280;72691;51.374;-0.176;2023-12-22T10:18:45;100959.05;;;9.30;60.91
82668;BME280;72691;51.374;-0.176;2023-12-22T10:21:10;100954.84;;;9.39;59.72
82668;BME280;72691;51.374;-0.176;2023-12-22T10:23:36;100949.95;;;9.10;60.99
82668;BME280;72691;51.374;-0.176;2023-12-22T10:26:01;100956.71;;;8.93;61.60
82668;BME280;72691;51.374;-0.176;2023-12-22T10:28:27;100956.65;;;8.97;62.05
82668;BME280;72691;51.374;-0.176;2023-12-22T10:30:53;100952.08;;;8.99;62.17
82668;BME280;72691;51.374;-0.176;2023-12-22T10:33:18;100953.42;;;9.10;61.01
82668;BME280;72691;51.374;-0.176;2023-12-22T10:35:43;100947.59;;;9.85;59.01
82668;BME280;72691;51.374;-0.176;2023-12-22T10:38:09;100951.16;;;9.45;60.13
82668;BME280;72691;51.374;-0.176;2023-12-22T10:40:37;100951.50;;;9.23;59.68
82668;BME280;72691;51.374;-0.176;2023-12-22T10:42:59;100953.44;;;9.39;60.38
82668;BME280;72691;51.374;-0.176;2023-12-22T10:45:25;100959.58;;;10.15;58.26
82668;BME280;72691;51.374;-0.176;2023-12-22T10:47:51;100959.66;;;9.54;60.34
82668;BME280;72691;51.374;-0.176;2023-12-22T10:50:15;100949.73;;;8.96;61.71
82668;BME280;72691;51.374;-0.176;2023-12-22T10:52:41;100960.10;;;10.00;59.63
82668;BME280;72691;51.374;-0.176;2023-12-22T10:55:07;100956.36;;;9.22;60.01
82668;BME280;72691;51.374;-0.176;2023-12-22T10:57:32;100965.99;;;9.60;59.20
82668;BME280;72691;51.374;-0.176;2023-12-22T10:59:57;100957.80;;;9.89;58.96
82668;BME280;72691;51.374;-0.176;2023-12-22T11:02:23;100963.04;;;9.76;59.40
82668;BME280;72691;51.374;-0.176;2023-12-22T11:04:55;100955.07;;;9.29;59.93
82668;BME280;72691;51.374;-0.176;2023-12-22T11:07:14;100961.89;;;9.79;57.98
82668;BME280;72691;51.374;-0.176;2023-12-22T11:09:41;100963.04;;;9.44;58.89
82668;BME280;72691;51.374;-0.176;2023-12-22T11:12:05;100953.84;;;9.62;57.23
82668;BME280;72691;51.374;-0.176;2023-12-22T11:14:31;100958.60;;;9.52;58.09
82668;BME280;72691;51.374;-0.176;2023-12-22T11:16:55;100964.35;;;9.48;58.78
82668;BME280;72691;51.374;-0.176;2023-12-22T11:19:20;100955.79;;;9.66;57.11
82668;BME280;72691;51.374;-0.176;2023-12-22T11:21:47;100968.26;;;9.23;58.52
82668;BME280;72691;51.374;-0.176;2023-12-22T11:24:13;100961.92;;;9.55;57.19
82668;BME280;72691;51.374;-0.176;2023-12-22T11:26:38;100966.67;;;9.04;59.03
82668;BME280;72691;51.374;-0.176;2023-12-22T11:29:02;100967.03;;;9.12;58.43
82668;BME280;72691;51.374;-0.176;2023-12-22T11:31:28;100973.13;;;9.75;56.73
82668;BME280;72691;51.374;-0.176;2023-12-22T11:33:53;100965.96;;;10.60;54.73
82668;BME280;72691;51.374;-0.176;2023-12-22T11:36:18;100968.07;;;10.55;55.15
82668;BME280;72691;51.374;-0.176;2023-12-22T11:38:44;100968.24;;;9.79;56.42
82668;BME280;72691;51.374;-0.176;2023-12-22T11:41:10;100965.97;;;9.70;56.99
82668;BME280;72691;51.374;-0.176;2023-12-22T11:43:35;100971.81;;;9.93;56.24
82668;BME280;72691;51.374;-0.176;2023-12-22T11:46:01;100966.74;;;10.60;53.94
82668;BME280;72691;51.374;-0.176;2023-12-22T11:48:25;100966.83;;;10.19;54.77
82668;BME280;72691;51.374;-0.176;2023-12-22T11:50:51;100968.31;;;10.04;55.67
82668;BME280;72691;51.374;-0.176;2023-12-22T11:53:20;100972.47;;;9.03;58.59
82668;BME280;72691;51.374;-0.176;2023-12-22T11:55:56;100964.05;;;9.62;56.09
82668;BME280;72691;51.374;-0.176;2023-12-22T12:00:38;100946.37;;;10.76;53.73
82668;BME280;72691;51.374;-0.176;2023-12-22T12:02:57;100940.00;;;10.32;53.96
82668;BME280;72691;51.374;-0.176;2023-12-22T12:05:23;100947.50;;;10.11;54.72
82668;BME280;72691;51.374;-0.176;2023-12-22T12:07:48;100948.59;;;10.39;54.22
82668;BME280;72691;51.374;-0.176;2023-12-22T12:12:38;100960.95;;;9.45;56.53
82668;BME280;72691;51.374;-0.176;2023-12-22T12:15:10;100946.22;;;9.95;55.67
82668;BME280;72691;51.374;-0.176;2023-12-22T12:17:29;100945.97;;;10.10;54.00
82668;BME280;72691;51.374;-0.176;2023-12-22T12:19:54;100933.79;;;10.55;53.13
82668;BME280;72691;51.374;-0.176;2023-12-22T12:22:20;100941.91;;;10.45;53.43
82668;BME280;72691;51.374;-0.176;2023-12-22T12:24:45;100936.61;;;9.55;54.07
82668;BME280;72691;51.374;-0.176;2023-12-22T12:27:10;100915.36;;;9.98;53.86
82668;BME280;72691;51.374;-0.176;2023-12-22T12:29:36;100917.01;;;10.43;53.65
82668;BME280;72691;51.374;-0.176;2023-12-22T12:32:03;100916.87;;;10.22;53.66
82668;BME280;72691;51.374;-0.176;2023-12-22T12:34:27;100924.58;;;10.53;52.76
82668;BME280;72691;51.374;-0.176;2023-12-22T12:36:52;100915.94;;;9.96;53.39
82668;BME280;72691;51.374;-0.176;2023-12-22T12:39:21;100915.13;;;9.71;54.13
82668;BME280;72691;51.374;-0.176;2023-12-22T12:41:43;100923.14;;;9.75;55.67
82668;BME280;72691;51.374;-0.176;2023-12-22T12:44:09;100924.65;;;9.56;56.82